Time;durP1;ratioP1;P1;durP2;ratioP2;P2;SDS_P1;SDS_P2;PMS_P1;PMS_P2;Temp;Humidity;BMP_temperature;BMP_pressure;BME280_temperature;BME280_humidity;BME280_pressure;Samples;Min_cycle;Max_cycle;Signal;HPM_P1;HPM_P2
2023/08/21 00:01:31;;;;;;;5.53;1.20;;;19.90;99.90;;;;;;5051437;28;20029;-87
2023/08/21 00:03:57;;;;;;;4.47;1.90;;;20.00;99.90;;;;;;5051286;28;20028;-86
2023/08/21 00:06:22;;;;;;;2.55;1.15;;;19.90;99.90;;;;;;5051399;28;20041;-87
2023/08/21 00:08:48;;;;;;;5.30;1.00;;;19.90;99.90;;;;;;5068857;28;20023;-87
2023/08/21 00:11:13;;;;;;;3.92;1.15;;;19.90;99.90;;;;;;5070169;28;20094;-86
2023/08/21 00:13:39;;;;;;;3.33;1.30;;;19.80;99.90;;;;;;5070515;28;20028;-86
2023/08/21 00:16:05;;;;;;;4.15;1.30;;;19.80;99.90;;;;;;5071273;28;20020;-87
2023/08/21 00:18:30;;;;;;;3.83;1.50;;;19.80;99.90;;;;;;5071058;28;20029;-86
2023/08/21 00:20:56;;;;;;;7.47;1.65;;;19.80;99.90;;;;;;5070419;28;20037;-91
2023/08/21 00:23:22;;;;;;;4.55;1.35;;;19.70;99.90;;;;;;5070257;28;20024;-86
2023/08/21 00:25:47;;;;;;;4.97;1.45;;;19.60;99.90;;;;;;5070376;28;20189;-86
2023/08/21 00:28:13;;;;;;;6.15;1.30;;;19.70;99.90;;;;;;5069958;28;20078;-87
2023/08/21 00:30:39;;;;;;;6.65;1.98;;;19.70;99.90;;;;;;5069848;28;20480;-87
2023/08/21 00:33:05;;;;;;;4.13;1.38;;;19.70;99.90;;;;;;5068637;28;20035;-87
2023/08/21 00:35:31;;;;;;;4.32;1.27;;;19.70;99.90;;;;;;5070708;28;20076;-87
2023/08/21 00:37:56;;;;;;;5.70;1.38;;;19.60;99.90;;;;;;5069285;28;20095;-87
2023/08/21 00:40:22;;;;;;;3.08;1.40;;;19.60;99.90;;;;;;5069655;28;20107;-92
2023/08/21 00:42:48;;;;;;;4.57;1.88;;;19.60;99.90;;;;;;5071111;28;20031;-86
2023/08/21 00:45:13;;;;;;;7.18;2.38;;;19.60;99.90;;;;;;5070487;28;20549;-89
2023/08/21 00:47:39;;;;;;;7.22;1.98;;;19.50;99.90;;;;;;5070662;28;20032;-87
2023/08/21 00:50:07;;;;;;;3.55;1.23;;;19.60;99.90;;;;;;5069711;28;20024;-91
2023/08/21 00:52:35;;;;;;;8.63;1.70;;;19.60;99.90;;;;;;5069639;28;20025;-87
2023/08/21 00:55:02;;;;;;;8.00;2.70;;;19.60;99.90;;;;;;5069735;28;20123;-87
2023/08/21 00:57:27;;;;;;;5.72;1.55;;;19.50;99.90;;;;;;5070234;28;20021;-87
2023/08/21 00:59:54;;;;;;;3.42;1.63;;;19.50;99.90;;;;;;5071034;28;20551;-87
2023/08/21 01:02:19;;;;;;;3.75;1.70;;;19.50;99.90;;;;;;5069339;28;20024;-91
2023/08/21 01:04:45;;;;;;;5.78;1.60;;;19.50;99.90;;;;;;5069178;28;20027;-87
2023/08/21 01:07:11;;;;;;;6.70;1.80;;;19.40;99.90;;;;;;5069207;28;20093;-86
2023/08/21 01:10:02;;;;;;;6.20;1.83;;;19.30;99.90;;;;;;5069964;28;20385;-92
2023/08/21 01:12:44;;;;;;;7.03;2.75;;;19.40;99.90;;;;;;5050276;28;20090;-86
2023/08/21 01:15:10;;;;;;;4.97;1.80;;;19.40;99.90;;;;;;5050149;28;20028;-87
2023/08/21 01:17:37;;;;;;;8.32;1.83;;;19.40;99.90;;;;;;5048828;28;20401;-93
2023/08/21 01:20:06;;;;;;;4.47;1.63;;;19.30;99.90;;;;;;5066037;28;20021;-87
2023/08/21 01:22:38;;;;;;;;;;;19.30;99.90;;;;;;5069314;28;20456;-87
2023/08/21 01:25:11;;;;;;;5.90;1.73;;;19.30;99.90;;;;;;5069371;28;19967;-86
2023/08/21 01:27:37;;;;;;;6.13;1.50;;;19.10;99.90;;;;;;5069521;28;20107;-92
2023/08/21 01:30:04;;;;;;;4.38;1.42;;;19.10;99.90;;;;;;5068395;28;20155;-88
2023/08/21 01:32:37;;;;;;;4.47;1.55;;;19.10;99.90;;;;;;5069428;28;20044;-93
2023/08/21 01:35:03;;;;;;;5.22;1.55;;;19.10;99.90;;;;;;5069521;28;20108;-87
2023/08/21 01:37:30;;;;;;;8.18;1.73;;;19.10;99.90;;;;;;5067378;28;20038;-88
2023/08/21 01:39:58;;;;;;;7.22;1.58;;;19.00;99.90;;;;;;5076110;28;20013;-89
2023/08/21 01:42:24;;;;;;;5.18;1.55;;;19.10;99.90;;;;;;5049934;28;20032;-87
2023/08/21 01:44:50;;;;;;;5.45;1.52;;;19.10;99.90;;;;;;5052755;28;20048;-89
2023/08/21 01:47:15;;;;;;;6.97;1.80;;;19.10;99.90;;;;;;5067011;28;20036;-87
2023/08/21 01:49:41;;;;;;;5.72;1.50;;;19.10;99.90;;;;;;5069340;28;20103;-86
2023/08/21 01:52:07;;;;;;;7.38;1.80;;;19.10;99.90;;;;;;5067847;28;20032;-86
2023/08/21 01:54:32;;;;;;;10.38;1.67;;;19.20;99.90;;;;;;5069068;28;20032;-87
2023/08/21 01:56:58;;;;;;;5.13;1.60;;;19.00;99.90;;;;;;5068887;28;20025;-87
2023/08/21 01:59:24;;;;;;;6.15;1.70;;;19.00;99.90;;;;;;5068846;28;20028;-89
2023/08/21 02:01:50;;;;;;;6.53;1.77;;;19.00;99.90;;;;;;5068683;28;20025;-86
2023/08/21 02:04:16;;;;;;;7.93;1.50;;;19.00;99.90;;;;;;5069456;28;20446;-88
2023/08/21 02:06:43;;;;;;;6.30;1.45;;;19.10;99.90;;;;;;5067773;28;20093;-89
2023/08/21 02:09:09;;;;;;;4.70;1.27;;;19.00;99.90;;;;;;5067448;28;20020;-88
2023/08/21 02:11:35;;;;;;;7.47;1.20;;;19.00;99.90;;;;;;5069318;28;20036;-86
2023/08/21 02:14:00;;;;;;;4.85;1.70;;;19.10;99.90;;;;;;5068218;28;20031;-89
2023/08/21 02:16:26;;;;;;;4.63;1.63;;;19.10;99.90;;;;;;5068241;28;20025;-86
2023/08/21 02:18:52;;;;;;;5.65;1.52;;;19.00;99.90;;;;;;5069529;28;20450;-92
2023/08/21 02:21:17;;;;;;;6.68;1.75;;;18.90;99.90;;;;;;5068955;28;20020;-88
2023/08/21 02:23:43;;;;;;;7.60;1.50;;;18.90;99.90;;;;;;5068670;28;20055;-89
2023/08/21 02:26:08;;;;;;;5.70;1.52;;;18.80;99.90;;;;;;5067922;28;20059;-87
2023/08/21 02:28:34;;;;;;;5.38;1.60;;;18.90;99.90;;;;;;5068903;28;20028;-86
2023/08/21 02:31:00;;;;;;;5.35;1.35;;;18.80;99.90;;;;;;5068917;28;20083;-87
2023/08/21 02:33:25;;;;;;;3.22;1.48;;;18.70;99.90;;;;;;5068487;28;20032;-87
2023/08/21 02:35:51;;;;;;;5.13;1.90;;;18.80;99.90;;;;;;5069138;28;20384;-87
2023/08/21 02:38:17;;;;;;;3.25;1.30;;;18.80;99.90;;;;;;5068639;28;20094;-94
2023/08/21 02:40:42;;;;;;;7.43;1.55;;;18.90;99.90;;;;;;5068712;28;20020;-90
2023/08/21 02:43:08;;;;;;;4.38;1.65;;;18.90;99.90;;;;;;5068627;28;20041;-89
2023/08/21 02:45:33;;;;;;;4.03;1.23;;;18.90;99.90;;;;;;5068855;28;20040;-92
2023/08/21 02:47:59;;;;;;;4.32;1.23;;;19.00;99.90;;;;;;5067754;28;20056;-92
2023/08/21 02:50:25;;;;;;;5.15;1.58;;;19.00;99.90;;;;;;5069769;28;20024;-89
2023/08/21 02:52:50;;;;;;;4.40;1.92;;;19.00;99.90;;;;;;5072883;28;20039;-89
2023/08/21 02:55:16;;;;;;;3.75;1.40;;;18.90;99.90;;;;;;5072023;28;20020;-88
2023/08/21 02:57:41;;;;;;;1.98;1.17;;;18.90;99.90;;;;;;5071077;28;20032;-87
2023/08/21 03:00:08;;;;;;;3.33;1.40;;;18.90;99.90;;;;;;5072453;28;20020;-92
2023/08/21 03:02:34;;;;;;;4.95;1.70;;;18.90;99.90;;;;;;5071388;28;20035;-89
2023/08/21 03:05:00;;;;;;;3.60;1.40;;;18.90;99.90;;;;;;5071828;28;20574;-87
2023/08/21 03:07:25;;;;;;;8.07;1.60;;;18.90;99.90;;;;;;5072957;28;20523;-92
2023/08/21 03:09:51;;;;;;;5.55;1.65;;;18.80;99.90;;;;;;5072238;28;20020;-91
2023/08/21 03:12:17;;;;;;;5.85;1.55;;;18.80;99.90;;;;;;5071414;28;20064;-88
2023/08/21 03:14:42;;;;;;;4.70;1.60;;;18.80;99.90;;;;;;5079015;28;20020;-88
2023/08/21 03:17:08;;;;;;;4.65;1.65;;;18.80;99.90;;;;;;5072574;28;20025;-88
2023/08/21 03:19:34;;;;;;;11.02;1.85;;;18.80;99.90;;;;;;5067793;28;20052;-87
2023/08/21 03:22:00;;;;;;;3.20;1.50;;;18.80;99.90;;;;;;5065667;28;20038;-90
2023/08/21 03:24:26;;;;;;;4.53;1.55;;;18.80;99.90;;;;;;5068586;28;20016;-91
2023/08/21 03:26:51;;;;;;;3.38;1.48;;;18.80;99.90;;;;;;5093231;28;20109;-86
2023/08/21 03:29:17;;;;;;;3.75;1.70;;;18.80;99.90;;;;;;5091353;28;20031;-92
2023/08/21 03:31:42;;;;;;;6.90;1.98;;;18.70;99.90;;;;;;5071299;28;20051;-87
2023/08/21 03:34:08;;;;;;;2.55;1.60;;;18.70;99.90;;;;;;5071801;28;20024;-86
2023/08/21 03:36:36;;;;;;;4.47;1.80;;;18.70;99.90;;;;;;5071638;28;20037;-89
2023/08/21 03:39:04;;;;;;;;;;;18.70;99.90;;;;;;5070683;28;20021;-87
2023/08/21 03:41:29;;;;;;;3.17;1.70;;;18.70;99.90;;;;;;5072633;28;19949;-87
2023/08/21 03:43:55;;;;;;;2.05;1.40;;;18.60;99.90;;;;;;5069535;28;20029;-87
2023/08/21 03:46:20;;;;;;;2.58;1.42;;;18.70;99.90;;;;;;5069743;28;20622;-87
2023/08/21 03:48:46;;;;;;;4.78;1.50;;;18.60;99.90;;;;;;5069142;28;20029;-88
2023/08/21 03:51:12;;;;;;;2.95;1.63;;;18.60;99.90;;;;;;5071701;28;20029;-87
2023/08/21 03:53:37;;;;;;;1.50;1.40;;;18.60;99.90;;;;;;5069642;28;20029;-87
2023/08/21 03:56:03;;;;;;;1.20;1.20;;;18.60;99.90;;;;;;5069264;28;20529;-89
2023/08/21 03:58:29;;;;;;;1.52;1.42;;;18.50;99.90;;;;;;5070582;28;20023;-90
2023/08/21 04:00:54;;;;;;;1.33;1.20;;;18.50;99.90;;;;;;5069910;28;20422;-89
2023/08/21 04:03:21;;;;;;;1.17;1.05;;;18.40;99.90;;;;;;5068518;28;20487;-86
2023/08/21 04:05:47;;;;;;;3.13;1.38;;;18.40;99.90;;;;;;5070632;28;20123;-88
2023/08/21 04:08:13;;;;;;;1.30;1.20;;;18.40;99.90;;;;;;5072609;28;20120;-90
2023/08/21 04:10:39;;;;;;;2.67;1.20;;;18.40;99.90;;;;;;5061118;28;20031;-88
2023/08/21 04:13:05;;;;;;;1.00;1.00;;;18.40;99.90;;;;;;5071569;28;20099;-91
2023/08/21 04:15:31;;;;;;;0.90;0.90;;;18.30;99.90;;;;;;5071640;28;20032;-89
2023/08/21 04:17:57;;;;;;;1.10;1.00;;;18.30;99.90;;;;;;5071513;28;20017;-87
2023/08/21 04:20:23;;;;;;;1.00;1.00;;;18.30;99.90;;;;;;5061133;28;20424;-92
2023/08/21 04:22:49;;;;;;;1.02;1.00;;;18.30;99.90;;;;;;5067479;28;20507;-88
2023/08/21 04:25:15;;;;;;;1.23;1.15;;;18.30;99.90;;;;;;5070667;28;20477;-87
2023/08/21 04:27:42;;;;;;;1.02;1.02;;;18.30;99.90;;;;;;5069959;28;20044;-88
2023/08/21 04:30:08;;;;;;;1.45;1.33;;;18.20;99.90;;;;;;5068685;28;20024;-88
2023/08/21 04:32:34;;;;;;;2.47;1.30;;;18.30;99.90;;;;;;5069374;28;20115;-88
2023/08/21 04:34:59;;;;;;;1.40;1.20;;;18.20;99.90;;;;;;5070214;28;20107;-88
2023/08/21 04:37:25;;;;;;;1.20;1.10;;;18.10;99.90;;;;;;5067750;28;20392;-88
2023/08/21 04:39:52;;;;;;;3.10;1.85;;;18.20;99.90;;;;;;5076806;28;20024;-89
2023/08/21 04:42:17;;;;;;;2.25;1.25;;;18.10;99.90;;;;;;5074727;28;20035;-88
2023/08/21 04:44:43;;;;;;;1.38;0.98;;;18.10;99.90;;;;;;5072421;28;20033;-90
2023/08/21 04:47:23;;;;;;;1.00;1.00;;;18.10;99.90;;;;;;5069060;28;20040;-88
2023/08/21 04:49:50;;;;;;;1.05;0.93;;;18.20;99.90;;;;;;5056237;28;20029;-89
2023/08/21 04:52:16;;;;;;;1.65;0.77;;;18.10;99.90;;;;;;5071474;28;20027;-88
2023/08/21 04:54:42;;;;;;;2.15;0.93;;;18.10;99.90;;;;;;5074742;28;20387;-89
2023/08/21 04:57:07;;;;;;;0.70;0.70;;;18.10;99.90;;;;;;5069985;28;20492;-90
2023/08/21 04:59:37;;;;;;;0.77;0.77;;;18.10;99.90;;;;;;5071135;28;20025;-90
2023/08/21 05:02:03;;;;;;;1.13;0.90;;;18.10;99.90;;;;;;5070820;28;20403;-91
2023/08/21 05:04:29;;;;;;;1.85;1.00;;;18.10;99.90;;;;;;5071798;28;20025;-92
2023/08/21 05:06:55;;;;;;;2.15;1.17;;;18.00;99.90;;;;;;5070241;28;20097;-88
2023/08/21 05:09:20;;;;;;;2.20;0.85;;;18.10;99.90;;;;;;5069427;28;20032;-88
2023/08/21 05:11:46;;;;;;;1.35;1.00;;;18.00;99.90;;;;;;5069880;28;20031;-86
2023/08/21 05:14:11;;;;;;;3.30;1.23;;;18.00;99.90;;;;;;5053441;28;20035;-85
2023/08/21 05:16:37;;;;;;;2.13;1.00;;;18.00;99.90;;;;;;5050006;28;20025;-84
2023/08/21 05:19:03;;;;;;;1.20;1.08;;;17.90;99.90;;;;;;5061757;28;20036;-86
2023/08/21 05:21:29;;;;;;;1.55;1.38;;;17.90;99.90;;;;;;5069737;28;20036;-85
2023/08/21 05:23:55;;;;;;;1.80;1.20;;;17.80;99.90;;;;;;5069757;28;20104;-85
2023/08/21 05:26:20;;;;;;;3.35;1.13;;;17.90;99.90;;;;;;5069695;28;20123;-85
2023/08/21 05:28:46;;;;;;;1.70;1.23;;;17.80;99.90;;;;;;5068921;28;20029;-85
2023/08/21 05:31:12;;;;;;;3.63;1.45;;;17.80;99.90;;;;;;5069655;28;20464;-86
2023/08/21 05:33:38;;;;;;;2.95;1.15;;;17.90;99.90;;;;;;5069635;28;20025;-85
2023/08/21 05:36:04;;;;;;;4.63;1.30;;;17.90;99.90;;;;;;5070342;28;20021;-85
2023/08/21 05:38:31;;;;;;;2.92;1.50;;;17.90;99.90;;;;;;5069478;28;20544;-85
2023/08/21 05:40:58;;;;;;;3.80;1.40;;;17.90;99.90;;;;;;5069481;28;20047;-87
2023/08/21 05:43:23;;;;;;;4.50;1.73;;;18.00;99.90;;;;;;5069198;28;20119;-85
2023/08/21 05:45:49;;;;;;;7.93;1.80;;;17.90;99.90;;;;;;5066727;28;20139;-85
2023/08/21 05:48:14;;;;;;;2.22;1.40;;;17.90;99.90;;;;;;5069317;28;20088;-85
2023/08/21 05:50:40;;;;;;;1.98;1.30;;;17.90;99.90;;;;;;5069400;28;20479;-84
2023/08/21 05:53:06;;;;;;;5.28;1.52;;;17.90;99.90;;;;;;5070120;28;20107;-85
2023/08/21 05:55:32;;;;;;;3.67;1.30;;;17.90;99.90;;;;;;5069056;28;20103;-85
2023/08/21 05:57:58;;;;;;;1.88;1.02;;;18.00;99.90;;;;;;5069300;28;20650;-85
2023/08/21 06:00:24;;;;;;;1.08;0.93;;;17.90;99.90;;;;;;5068344;28;20108;-85
2023/08/21 06:02:49;;;;;;;4.00;1.20;;;17.90;99.90;;;;;;5067840;28;20427;-86
2023/08/21 06:05:15;;;;;;;2.15;1.27;;;17.90;99.90;;;;;;5069085;28;20047;-85
2023/08/21 06:07:41;;;;;;;1.70;1.33;;;17.90;99.90;;;;;;5069286;28;20056;-87
2023/08/21 06:10:12;;;;;;;2.28;1.35;;;17.90;99.90;;;;;;5067961;28;20050;-88
2023/08/21 06:12:41;;;;;;;1.63;1.33;;;17.90;99.90;;;;;;5069951;28;20086;-86
2023/08/21 06:15:11;;;;;;;2.30;1.30;;;18.00;99.90;;;;;;5068588;28;20027;-86
2023/08/21 06:17:37;;;;;;;2.42;1.60;;;18.00;99.90;;;;;;5069964;28;20499;-86
2023/08/21 06:20:08;;;;;;;1.95;1.30;;;18.10;99.90;;;;;;5067770;28;20029;-85
2023/08/21 06:22:35;;;;;;;2.40;1.60;;;18.00;99.90;;;;;;5067534;28;20483;-85
2023/08/21 06:25:02;;;;;;;4.35;1.50;;;18.00;99.90;;;;;;5069510;28;20082;-85
2023/08/21 06:27:27;;;;;;;3.05;1.10;;;18.10;99.90;;;;;;5073081;28;20028;-85
2023/08/21 06:29:53;;;;;;;3.17;1.50;;;18.20;99.90;;;;;;5073023;28;20036;-85
2023/08/21 06:32:18;;;;;;;2.67;1.40;;;18.20;99.90;;;;;;5085571;28;20055;-87
2023/08/21 06:34:44;;;;;;;2.20;1.70;;;18.20;99.90;;;;;;5093024;28;20031;-85
2023/08/21 06:37:10;;;;;;;2.78;1.80;;;18.20;99.90;;;;;;5093771;28;20029;-85
2023/08/21 06:39:35;;;;;;;3.65;1.70;;;18.20;99.90;;;;;;5074452;28;20380;-89
2023/08/21 06:42:01;;;;;;;2.63;1.42;;;18.20;99.90;;;;;;5072924;28;20024;-85
2023/08/21 06:44:27;;;;;;;3.95;2.00;;;18.30;99.90;;;;;;5072657;28;20110;-88
2023/08/21 06:46:53;;;;;;;5.78;2.10;;;18.50;99.90;;;;;;5072788;28;20063;-86
2023/08/21 06:49:18;;;;;;;3.17;2.10;;;18.50;99.90;;;;;;5070957;28;20099;-89
2023/08/21 06:51:44;;;;;;;4.68;1.80;;;18.50;99.90;;;;;;5088085;28;20433;-88
2023/08/21 06:54:10;;;;;;;4.72;1.90;;;18.40;99.90;;;;;;5093857;28;20028;-86
2023/08/21 06:56:35;;;;;;;8.43;2.88;;;18.40;99.90;;;;;;5092871;28;20025;-85
2023/08/21 06:59:01;;;;;;;3.47;1.77;;;18.50;99.90;;;;;;5092957;28;20736;-85
2023/08/21 07:01:28;;;;;;;6.55;1.80;;;18.60;99.90;;;;;;5091692;28;20026;-87
2023/08/21 07:03:53;;;;;;;4.40;2.13;;;18.60;99.90;;;;;;5081814;28;20407;-88
2023/08/21 07:06:19;;;;;;;6.35;1.83;;;18.60;99.90;;;;;;5072254;28;20035;-88
2023/08/21 07:08:45;;;;;;;6.40;2.45;;;18.70;99.90;;;;;;5072274;28;20396;-85
2023/08/21 07:11:12;;;;;;;4.60;1.88;;;18.80;99.90;;;;;;5071871;28;20056;-88
2023/08/21 07:13:38;;;;;;;8.60;1.70;;;18.90;99.90;;;;;;5071573;28;20365;-85
2023/08/21 07:16:05;;;;;;;7.00;2.10;;;19.00;99.90;;;;;;5072287;28;20025;-85
2023/08/21 07:18:33;;;;;;;5.30;1.73;;;18.90;99.90;;;;;;5072144;28;20028;-87
2023/08/21 07:20:58;;;;;;;3.05;1.60;;;19.00;99.90;;;;;;5072110;28;20025;-85
2023/08/21 07:23:24;;;;;;;2.72;1.38;;;19.00;99.90;;;;;;5071275;28;20134;-85
2023/08/21 07:25:50;;;;;;;6.22;2.13;;;19.10;99.90;;;;;;5070545;28;20039;-88
2023/08/21 07:28:15;;;;;;;6.60;1.65;;;19.10;99.90;;;;;;5071903;28;20112;-86
2023/08/21 07:30:41;;;;;;;6.40;1.80;;;19.20;99.90;;;;;;5072799;28;20032;-85
2023/08/21 07:33:06;;;;;;;3.60;1.60;;;19.20;99.90;;;;;;5069605;28;20044;-85
2023/08/21 07:35:32;;;;;;;5.53;1.85;;;19.30;99.90;;;;;;5085721;28;20555;-85
2023/08/21 07:37:58;;;;;;;6.43;1.45;;;19.30;99.90;;;;;;5092085;28;20031;-88
2023/08/21 07:40:24;;;;;;;7.00;1.85;;;19.40;99.90;;;;;;5092144;28;20016;-86
2023/08/21 07:42:50;;;;;;;5.75;1.92;;;19.50;99.90;;;;;;5091998;28;20051;-88
2023/08/21 07:45:16;;;;;;;4.93;1.80;;;19.50;99.90;;;;;;5090449;28;20027;-85
2023/08/21 07:47:42;;;;;;;7.97;1.73;;;19.70;99.90;;;;;;5092948;28;20020;-86
2023/08/21 07:50:08;;;;;;;4.45;1.73;;;19.80;99.90;;;;;;5091999;28;20020;-89
2023/08/21 07:52:35;;;;;;;4.50;1.58;;;19.80;99.90;;;;;;5085904;28;20020;-89
2023/08/21 07:55:00;;;;;;;7.15;1.80;;;20.00;99.90;;;;;;5071622;28;20107;-89
2023/08/21 07:57:28;;;;;;;9.45;2.08;;;20.10;99.90;;;;;;5070218;28;20036;-86
2023/08/21 07:59:53;;;;;;;4.63;1.67;;;20.10;99.90;;;;;;5068614;28;20492;-86
2023/08/21 08:02:19;;;;;;;5.55;1.60;;;20.30;99.90;;;;;;5071394;28;20025;-86
2023/08/21 08:04:46;;;;;;;5.47;1.70;;;20.50;99.90;;;;;;5072237;28;20025;-87
2023/08/21 08:07:11;;;;;;;6.13;1.55;;;20.50;99.90;;;;;;5072053;28;20040;-86
2023/08/21 08:09:37;;;;;;;3.90;1.45;;;20.70;99.90;;;;;;5070227;28;20021;-86
2023/08/21 08:12:03;;;;;;;7.38;1.80;;;20.80;99.90;;;;;;5071252;28;20025;-87
2023/08/21 08:14:29;;;;;;;6.43;1.60;;;20.80;99.90;;;;;;5071275;28;20019;-88
2023/08/21 08:16:54;;;;;;;7.07;1.55;;;20.90;99.90;;;;;;5071062;28;20025;-85
2023/08/21 08:19:20;;;;;;;6.68;1.40;;;21.00;99.90;;;;;;5071210;28;20021;-86
2023/08/21 08:21:46;;;;;;;6.68;2.13;;;20.90;99.90;;;;;;5070929;28;20045;-86
2023/08/21 08:24:12;;;;;;;4.40;1.70;;;20.90;99.90;;;;;;5071819;28;20016;-86
2023/08/21 08:26:38;;;;;;;4.22;1.48;;;21.10;99.90;;;;;;5070825;28;20041;-86
2023/08/21 08:29:04;;;;;;;4.75;1.63;;;21.30;99.90;;;;;;5070270;28;20029;-86
2023/08/21 08:31:30;;;;;;;5.75;1.50;;;21.40;99.90;;;;;;5070901;28;20012;-86
2023/08/21 08:33:56;;;;;;;5.95;1.60;;;21.40;99.90;;;;;;5070824;28;20442;-86
2023/08/21 08:36:22;;;;;;;4.93;1.63;;;21.50;99.90;;;;;;5079945;28;20067;-86
2023/08/21 08:38:48;;;;;;;8.75;1.50;;;21.60;99.90;;;;;;5091172;28;20020;-85
2023/08/21 08:41:39;;;;;;;7.05;1.75;;;21.70;99.90;;;;;;5091830;28;20479;-87
2023/08/21 08:44:05;;;;;;;6.35;1.50;;;21.60;99.90;;;;;;5090722;28;20473;-87
2023/08/21 08:46:31;;;;;;;6.75;1.63;;;21.80;99.90;;;;;;5090715;28;20123;-86
2023/08/21 08:48:58;;;;;;;7.22;1.83;;;21.80;99.90;;;;;;5090283;28;20047;-85
2023/08/21 08:51:24;;;;;;;7.18;1.63;;;21.90;99.90;;;;;;5079874;28;20036;-86
2023/08/21 08:53:50;;;;;;;7.18;1.70;;;22.00;99.90;;;;;;5070341;28;20025;-86
2023/08/21 08:56:16;;;;;;;6.07;1.40;;;22.20;99.90;;;;;;5069903;28;20033;-88
2023/08/21 08:58:42;;;;;;;5.30;1.70;;;22.30;99.90;;;;;;5069138;28;20472;-89
2023/08/21 09:01:10;;;;;;;9.18;1.77;;;22.30;99.90;;;;;;5069443;28;20597;-88
2023/08/21 09:03:37;;;;;;;5.45;1.65;;;22.40;99.90;;;;;;5069290;28;20040;-86
2023/08/21 09:06:03;;;;;;;6.93;1.60;;;22.60;99.90;;;;;;5068219;28;20115;-86
2023/08/21 09:08:29;;;;;;;6.10;1.92;;;22.70;99.90;;;;;;5068721;28;20170;-86
2023/08/21 09:10:55;;;;;;;8.35;1.95;;;22.80;99.90;;;;;;5068728;28;20528;-86
2023/08/21 09:13:20;;;;;;;5.05;1.77;;;22.90;99.90;;;;;;5069855;28;20516;-86
2023/08/21 09:15:52;;;;;;;5.07;1.52;;;22.90;99.90;;;;;;5069729;28;20054;-89
2023/08/21 09:18:18;;;;;;;7.97;1.63;;;22.80;99.90;;;;;;5070749;28;20034;-86
2023/08/21 09:20:44;;;;;;;6.50;1.70;;;23.00;99.90;;;;;;5069925;28;20035;-87
2023/08/21 09:23:14;;;;;;;8.60;1.60;;;23.20;99.90;;;;;;5069920;28;20739;-86
2023/08/21 09:25:40;;;;;;;7.28;1.55;;;23.20;99.90;;;;;;5069762;28;20063;-86
2023/08/21 09:28:07;;;;;;;6.70;1.60;;;23.30;99.90;;;;;;5069640;28;20468;-86
2023/08/21 09:30:47;;;;;;;4.75;1.40;;;23.40;99.90;;;;;;5069736;28;20023;-86
2023/08/21 09:33:13;;;;;;;8.77;1.95;;;23.50;99.90;;;;;;5068378;28;20032;-86
2023/08/21 09:35:41;;;;;;;5.97;1.70;;;23.60;99.90;;;;;;5068321;28;20059;-86
2023/08/21 09:38:07;;;;;;;6.93;1.52;;;23.70;99.90;;;;;;5068912;28;20025;-86
2023/08/21 09:40:33;;;;;;;8.40;2.03;;;23.80;99.90;;;;;;5069531;28;20115;-86
2023/08/21 09:42:59;;;;;;;6.28;1.88;;;23.80;99.90;;;;;;5069370;28;20111;-86
2023/08/21 09:45:27;;;;;;;6.97;1.90;;;23.80;99.90;;;;;;5069592;28;20021;-86
2023/08/21 09:47:53;;;;;;;7.65;2.15;;;23.90;99.90;;;;;;5067965;28;20043;-86
2023/08/21 09:50:22;;;;;;;9.32;1.77;;;23.60;99.90;;;;;;5067988;28;20488;-87
2023/08/21 09:52:48;;;;;;;4.75;1.50;;;23.50;99.90;;;;;;5062797;28;20150;-87
2023/08/21 09:55:15;;;;;;;5.72;1.48;;;23.50;99.90;;;;;;5069385;28;20056;-88
2023/08/21 09:57:41;;;;;;;8.93;1.83;;;23.60;99.90;;;;;;5068152;28;20392;-89
2023/08/21 10:00:20;;;;;;;6.82;1.50;;;23.80;99.90;;;;;;5068463;28;20028;-88
2023/08/21 10:02:50;;;;;;;5.10;1.45;;;24.00;99.90;;;;;;5069081;28;20093;-88
2023/08/21 10:05:17;;;;;;;5.53;1.40;;;24.00;99.90;;;;;;5068068;28;20028;-87
2023/08/21 10:07:49;;;;;;;6.40;1.60;;;23.90;99.90;;;;;;5068508;28;20035;-88
2023/08/21 10:10:18;;;;;;;4.05;1.30;;;24.00;99.90;;;;;;5069293;28;20492;-89
2023/08/21 10:12:43;;;;;;;4.43;1.45;;;24.10;99.90;;;;;;5069071;28;20029;-89
2023/08/21 10:15:10;;;;;;;4.90;1.60;;;24.30;99.90;;;;;;5066297;28;20070;-86
2023/08/21 10:17:37;;;;;;;7.30;2.60;;;24.30;99.90;;;;;;5068719;28;20063;-86
2023/08/21 10:20:04;;;;;;;6.13;1.70;;;24.30;99.90;;;;;;5068979;28;20158;-88
2023/08/21 10:22:43;;;;;;;4.70;1.53;;;24.20;99.90;;;;;;5069281;28;20479;-88
2023/08/21 10:25:26;;;;;;;4.88;1.60;;;24.20;99.90;;;;;;5069185;28;20036;-87
2023/08/21 10:27:54;;;;;;;3.00;1.40;;;24.20;99.90;;;;;;5068387;28;20392;-86
2023/08/21 10:30:23;;;;;;;5.53;1.50;;;24.20;99.90;;;;;;5069058;28;20021;-88
2023/08/21 10:32:53;;;;;;;3.60;1.25;;;24.40;99.90;;;;;;5069548;28;20626;-86
2023/08/21 10:35:21;;;;;;;4.72;1.30;;;24.40;99.90;;;;;;5069943;28;20020;-88
2023/08/21 10:38:05;;;;;;;6.97;1.30;;;24.60;99.90;;;;;;5068917;28;20115;-88
2023/08/21 10:40:31;;;;;;;5.50;1.52;;;24.60;99.90;;;;;;5068897;28;20039;-89
2023/08/21 10:42:56;;;;;;;5.40;1.50;;;24.70;99.90;;;;;;5068654;28;20416;-88
2023/08/21 10:45:22;;;;;;;3.95;1.17;;;24.60;99.90;;;;;;5068381;28;20039;-86
2023/08/21 10:47:50;;;;;;;6.00;1.33;;;24.50;99.90;;;;;;5068766;28;20024;-88
2023/08/21 10:50:15;;;;;;;6.90;1.38;;;24.60;99.90;;;;;;5067319;28;20032;-86
2023/08/21 10:52:44;;;;;;;6.72;1.70;;;24.80;99.90;;;;;;5068687;28;20149;-88
2023/08/21 10:55:12;;;;;;;6.53;1.65;;;24.90;99.90;;;;;;5067888;28;20103;-87
2023/08/21 10:57:40;;;;;;;3.70;1.40;;;25.00;99.90;;;;;;5068709;28;20049;-86
2023/08/21 11:00:09;;;;;;;5.80;1.40;;;24.70;99.90;;;;;;5068710;28;20024;-86
2023/08/21 11:02:36;;;;;;;6.15;1.30;;;24.60;99.90;;;;;;5068654;28;20099;-86
2023/08/21 11:05:03;;;;;;;5.60;1.70;;;24.70;99.90;;;;;;5068812;28;20021;-87
2023/08/21 11:07:29;;;;;;;4.95;1.25;;;24.50;99.90;;;;;;5068476;28;20580;-86
2023/08/21 11:09:56;;;;;;;7.88;1.73;;;24.70;99.90;;;;;;5066809;28;20013;-86
2023/08/21 11:12:23;;;;;;;4.65;1.20;;;24.80;99.90;;;;;;5069958;28;20396;-86
2023/08/21 11:14:49;;;;;;;4.97;1.40;;;24.90;99.90;;;;;;5072328;28;20099;-86
2023/08/21 11:17:15;;;;;;;5.72;1.55;;;24.80;99.90;;;;;;5072407;28;20111;-86
2023/08/21 11:19:42;;;;;;;3.95;1.52;;;24.80;99.90;;;;;;5062778;28;20157;-88
2023/08/21 11:22:08;;;;;;;5.65;1.55;;;24.60;99.90;;;;;;5052293;28;20433;-88
2023/08/21 11:24:37;;;;;;;3.75;1.40;;;24.50;99.90;;;;;;5052381;28;20025;-89
2023/08/21 11:27:07;;;;;;;4.10;1.80;;;24.70;99.90;;;;;;5071977;28;20043;-86
2023/08/21 11:29:42;;;;;;;4.72;1.38;;;24.80;99.90;;;;;;5072100;28;20476;-88
2023/08/21 11:32:12;;;;;;;4.68;1.20;;;25.00;99.90;;;;;;5072046;28;20430;-88
2023/08/21 11:34:37;;;;;;;2.10;1.20;;;25.10;99.90;;;;;;5071998;28;20021;-88
2023/08/21 11:37:05;;;;;;;4.40;1.40;;;24.90;99.90;;;;;;5071855;28;20074;-88
2023/08/21 11:39:45;;;;;;;4.32;1.40;;;25.00;99.90;;;;;;5070588;28;20103;-89
2023/08/21 11:42:12;;;;;;;4.65;1.20;;;25.20;99.90;;;;;;5070376;28;20024;-88
2023/08/21 11:44:57;;;;;;;5.47;1.20;;;25.30;99.90;;;;;;5070362;28;20396;-88
2023/08/21 11:47:23;;;;;;;3.13;1.02;;;25.40;99.90;;;;;;5071785;28;20056;-86
2023/08/21 11:49:50;;;;;;;4.45;1.55;;;25.20;99.90;;;;;;5070619;28;20052;-87
2023/08/21 11:52:26;;;;;;;6.50;1.35;;;25.10;99.90;;;;;;5071616;28;20047;-88
2023/08/21 11:54:53;;;;;;;4.35;1.40;;;25.20;99.90;;;;;;5071862;28;20024;-88
2023/08/21 11:57:19;;;;;;;6.63;1.70;;;25.30;99.90;;;;;;5069379;28;20025;-89
2023/08/21 11:59:55;;;;;;;3.22;1.17;;;25.40;99.90;;;;;;5071609;28;20033;-88
2023/08/21 12:02:25;;;;;;;5.70;1.25;;;25.50;99.90;;;;;;5071498;28;20107;-88
2023/08/21 12:05:05;;;;;;;3.10;1.25;;;25.60;99.90;;;;;;5070188;28;20020;-88
2023/08/21 12:07:34;;;;;;;3.90;1.20;;;25.30;99.90;;;;;;5071221;28;20481;-88
2023/08/21 12:10:00;;;;;;;4.25;1.30;;;25.20;99.90;;;;;;5071261;28;20380;-87
2023/08/21 12:12:25;;;;;;;3.17;1.20;;;25.20;99.90;;;;;;5069367;28;20519;-88
2023/08/21 12:14:51;;;;;;;4.35;1.40;;;25.30;99.90;;;;;;5071178;28;20017;-87
2023/08/21 12:17:17;;;;;;;2.17;1.10;;;25.40;99.90;;;;;;5071167;28;20545;-89
2023/08/21 12:19:43;;;;;;;3.53;1.17;;;25.50;99.90;;;;;;5071051;28;20035;-86
2023/08/21 12:22:09;;;;;;;2.50;1.13;;;25.60;99.90;;;;;;5070994;28;20055;-86
2023/08/21 12:24:35;;;;;;;3.30;1.20;;;25.70;99.90;;;;;;5070338;28;20365;-86
2023/08/21 12:27:01;;;;;;;2.65;1.20;;;25.70;99.90;;;;;;5086427;28;20033;-87
2023/08/21 12:29:26;;;;;;;5.28;1.50;;;25.80;99.90;;;;;;5071014;28;20431;-87
2023/08/21 12:31:52;;;;;;;2.28;1.20;;;25.90;99.90;;;;;;5071026;28;20028;-88
2023/08/21 12:34:18;;;;;;;2.25;1.13;;;25.90;99.90;;;;;;5069547;28;20099;-86
2023/08/21 12:36:43;;;;;;;3.63;1.20;;;25.80;99.90;;;;;;5070200;28;20427;-88
2023/08/21 12:39:09;;;;;;;3.08;1.08;;;25.80;99.90;;;;;;5070796;28;20382;-86
2023/08/21 12:41:35;;;;;;;3.90;1.60;;;25.90;99.90;;;;;;5070500;28;20025;-86
2023/08/21 12:44:02;;;;;;;4.10;1.33;;;25.80;99.90;;;;;;5070541;28;20115;-87
2023/08/21 12:46:29;;;;;;;3.28;1.08;;;25.80;99.90;;;;;;5071424;28;20484;-88